sensor_id;sensor_type;location;lat;lon;timestamp;P1;durP1;ratioP1;P2;durP2;ratioP2
8098;SDS011;4092;47.876;9.372;2023-12-20T00:01:18;2.67;;;2.03;;
8098;SDS011;4092;47.876;9.372;2023-12-20T00:03:45;1.70;;;1.20;;
8098;SDS011;4092;47.876;9.372;2023-12-20T00:06:11;1.80;;;1.40;;
8098;SDS011;4092;47.876;9.372;2023-12-20T00:08:39;1.80;;;1.20;;
8098;SDS011;4092;47.876;9.372;2023-12-20T00:11:05;1.53;;;1.17;;
8098;SDS011;4092;47.876;9.372;2023-12-20T00:13:34;1.70;;;1.30;;
8098;SDS011;4092;47.876;9.372;2023-12-20T00:16:00;3.10;;;1.47;;
8098;SDS011;4092;47.876;9.372;2023-12-20T00:18:27;2.67;;;2.20;;
8098;SDS011;4092;47.876;9.372;2023-12-20T00:20:54;2.90;;;1.67;;
8098;SDS011;4092;47.876;9.372;2023-12-20T00:23:21;1.80;;;1.10;;
8098;SDS011;4092;47.876;9.372;2023-12-20T00:25:48;2.90;;;1.83;;
8098;SDS011;4092;47.876;9.372;2023-12-20T00:28:15;1.67;;;1.57;;
8098;SDS011;4092;47.876;9.372;2023-12-20T00:30:44;2.57;;;1.57;;
8098;SDS011;4092;47.876;9.372;2023-12-20T00:33:11;1.20;;;1.10;;
8098;SDS011;4092;47.876;9.372;2023-12-20T00:35:37;1.63;;;1.30;;
8098;SDS011;4092;47.876;9.372;2023-12-20T00:38:04;1.30;;;1.03;;
8098;SDS011;4092;47.876;9.372;2023-12-20T00:40:32;1.93;;;1.10;;
8098;SDS011;4092;47.876;9.372;2023-12-20T00:42:59;2.17;;;0.93;;
8098;SDS011;4092;47.876;9.372;2023-12-20T00:45:26;1.83;;;1.00;;
8098;SDS011;4092;47.876;9.372;2023-12-20T00:47:55;2.73;;;1.10;;
8098;SDS011;4092;47.876;9.372;2023-12-20T00:50:22;1.50;;;0.90;;
8098;SDS011;4092;47.876;9.372;2023-12-20T00:52:49;1.27;;;1.10;;
8098;SDS011;4092;47.876;9.372;2023-12-20T00:55:16;1.77;;;1.07;;
8098;SDS011;4092;47.876;9.372;2023-12-20T00:57:43;1.97;;;1.53;;
8098;SDS011;4092;47.876;9.372;2023-12-20T01:00:10;1.43;;;1.33;;
8098;SDS011;4092;47.876;9.372;2023-12-20T01:02:38;1.40;;;1.10;;
8098;SDS011;4092;47.876;9.372;2023-12-20T01:05:07;1.57;;;1.20;;
8098;SDS011;4092;47.876;9.372;2023-12-20T01:07:34;1.10;;;0.90;;
8098;SDS011;4092;47.876;9.372;2023-12-20T01:10:01;2.70;;;1.20;;
8098;SDS011;4092;47.876;9.372;2023-12-20T01:12:28;2.00;;;1.50;;
8098;SDS011;4092;47.876;9.372;2023-12-20T01:14:55;1.30;;;1.13;;
8098;SDS011;4092;47.876;9.372;2023-12-20T01:17:23;1.93;;;1.27;;
8098;SDS011;4092;47.876;9.372;2023-12-20T01:19:50;1.20;;;1.00;;
8098;SDS011;4092;47.876;9.372;2023-12-20T01:22:18;1.40;;;1.30;;
8098;SDS011;4092;47.876;9.372;2023-12-20T01:24:45;1.67;;;1.20;;
8098;SDS011;4092;47.876;9.372;2023-12-20T01:27:12;1.83;;;1.30;;
8098;SDS011;4092;47.876;9.372;2023-12-20T01:29:39;1.20;;;1.03;;
8098;SDS011;4092;47.876;9.372;2023-12-20T01:32:06;1.43;;;1.30;;
8098;SDS011;4092;47.876;9.372;2023-12-20T01:34:33;2.40;;;1.17;;
8098;SDS011;4092;47.876;9.372;2023-12-20T01:36:59;1.67;;;1.30;;
8098;SDS011;4092;47.876;9.372;2023-12-20T01:39:29;1.57;;;1.33;;
8098;SDS011;4092;47.876;9.372;2023-12-20T01:41:55;1.57;;;1.37;;
8098;SDS011;4092;47.876;9.372;2023-12-20T01:44:22;1.40;;;1.10;;
8098;SDS011;4092;47.876;9.372;2023-12-20T01:46:49;2.50;;;1.60;;
8098;SDS011;4092;47.876;9.372;2023-12-20T01:49:16;4.30;;;1.80;;
8098;SDS011;4092;47.876;9.372;2023-12-20T01:51:44;2.07;;;1.47;;
8098;SDS011;4092;47.876;9.372;2023-12-20T01:54:12;3.17;;;1.77;;
8098;SDS011;4092;47.876;9.372;2023-12-20T01:56:40;1.73;;;1.20;;
8098;SDS011;4092;47.876;9.372;2023-12-20T01:59:08;1.73;;;1.43;;
8098;SDS011;4092;47.876;9.372;2023-12-20T02:01:35;1.27;;;1.10;;
8098;SDS011;4092;47.876;9.372;2023-12-20T02:04:02;1.20;;;1.10;;
8098;SDS011;4092;47.876;9.372;2023-12-20T02:06:30;1.70;;;1.60;;
8098;SDS011;4092;47.876;9.372;2023-12-20T02:08:59;1.83;;;1.50;;
8098;SDS011;4092;47.876;9.372;2023-12-20T02:11:27;1.97;;;1.77;;
8098;SDS011;4092;47.876;9.372;2023-12-20T02:13:55;1.37;;;1.00;;
8098;SDS011;4092;47.876;9.372;2023-12-20T02:16:22;2.40;;;1.40;;
8098;SDS011;4092;47.876;9.372;2023-12-20T02:18:49;2.00;;;1.57;;
8098;SDS011;4092;47.876;9.372;2023-12-20T02:21:16;1.50;;;1.13;;
8098;SDS011;4092;47.876;9.372;2023-12-20T02:23:45;1.40;;;1.03;;
8098;SDS011;4092;47.876;9.372;2023-12-20T02:26:12;2.90;;;1.40;;
8098;SDS011;4092;47.876;9.372;2023-12-20T02:28:39;2.60;;;1.30;;
8098;SDS011;4092;47.876;9.372;2023-12-20T02:31:06;1.73;;;1.20;;
8098;SDS011;4092;47.876;9.372;2023-12-20T02:33:33;2.03;;;1.53;;
8098;SDS011;4092;47.876;9.372;2023-12-20T02:36:00;1.40;;;1.30;;
8098;SDS011;4092;47.876;9.372;2023-12-20T02:38:27;4.10;;;1.60;;
8098;SDS011;4092;47.876;9.372;2023-12-20T02:40:55;2.80;;;1.57;;
8098;SDS011;4092;47.876;9.372;2023-12-20T02:43:22;2.93;;;1.97;;
8098;SDS011;4092;47.876;9.372;2023-12-20T02:45:49;3.43;;;1.47;;
8098;SDS011;4092;47.876;9.372;2023-12-20T02:48:16;5.77;;;2.63;;
8098;SDS011;4092;47.876;9.372;2023-12-20T02:50:43;1.83;;;1.60;;
8098;SDS011;4092;47.876;9.372;2023-12-20T02:53:12;2.97;;;1.60;;
8098;SDS011;4092;47.876;9.372;2023-12-20T02:55:39;1.20;;;1.10;;
8098;SDS011;4092;47.876;9.372;2023-12-20T02:58:07;1.63;;;1.53;;
8098;SDS011;4092;47.876;9.372;2023-12-20T03:00:34;2.90;;;2.10;;
8098;SDS011;4092;47.876;9.372;2023-12-20T03:03:01;1.93;;;1.30;;
8098;SDS011;4092;47.876;9.372;2023-12-20T03:05:28;1.30;;;1.20;;
8098;SDS011;4092;47.876;9.372;2023-12-20T03:07:55;2.00;;;1.63;;
8098;SDS011;4092;47.876;9.372;2023-12-20T03:10:22;2.53;;;1.80;;
8098;SDS011;4092;47.876;9.372;2023-12-20T03:12:49;2.70;;;1.40;;
8098;SDS011;4092;47.876;9.372;2023-12-20T03:15:18;4.17;;;1.70;;
8098;SDS011;4092;47.876;9.372;2023-12-20T03:17:44;2.80;;;1.50;;
8098;SDS011;4092;47.876;9.372;2023-12-20T03:20:11;4.70;;;1.60;;
8098;SDS011;4092;47.876;9.372;2023-12-20T03:22:39;2.40;;;1.47;;
8098;SDS011;4092;47.876;9.372;2023-12-20T03:25:06;3.90;;;2.20;;
8098;SDS011;4092;47.876;9.372;2023-12-20T03:27:33;3.87;;;1.60;;
8098;SDS011;4092;47.876;9.372;2023-12-20T03:30:00;1.50;;;1.40;;
8098;SDS011;4092;47.876;9.372;2023-12-20T03:32:28;3.03;;;2.13;;
8098;SDS011;4092;47.876;9.372;2023-12-20T03:34:55;2.87;;;1.83;;
8098;SDS011;4092;47.876;9.372;2023-12-20T03:37:23;3.50;;;3.00;;
8098;SDS011;4092;47.876;9.372;2023-12-20T03:39:51;3.20;;;2.10;;
8098;SDS011;4092;47.876;9.372;2023-12-20T03:42:18;2.80;;;2.33;;
8098;SDS011;4092;47.876;9.372;2023-12-20T03:44:45;5.60;;;2.50;;
8098;SDS011;4092;47.876;9.372;2023-12-20T03:47:12;2.70;;;2.30;;
8098;SDS011;4092;47.876;9.372;2023-12-20T03:49:40;5.90;;;2.33;;
8098;SDS011;4092;47.876;9.372;2023-12-20T03:52:07;2.20;;;1.63;;
8098;SDS011;4092;47.876;9.372;2023-12-20T03:54:35;3.10;;;2.80;;
8098;SDS011;4092;47.876;9.372;2023-12-20T03:57:02;2.50;;;2.27;;
8098;SDS011;4092;47.876;9.372;2023-12-20T03:59:33;3.80;;;2.80;;
8098;SDS011;4092;47.876;9.372;2023-12-20T04:02:01;3.63;;;2.53;;
8098;SDS011;4092;47.876;9.372;2023-12-20T04:04:28;9.87;;;3.67;;
8098;SDS011;4092;47.876;9.372;2023-12-20T04:06:56;5.80;;;3.70;;
8098;SDS011;4092;47.876;9.372;2023-12-20T04:09:23;4.50;;;2.47;;
8098;SDS011;4092;47.876;9.372;2023-12-20T04:11:50;4.33;;;2.63;;
8098;SDS011;4092;47.876;9.372;2023-12-20T04:14:17;3.30;;;2.73;;
8098;SDS011;4092;47.876;9.372;2023-12-20T04:16:44;3.63;;;2.20;;
8098;SDS011;4092;47.876;9.372;2023-12-20T04:19:11;4.80;;;2.13;;
8098;SDS011;4092;47.876;9.372;2023-12-20T04:21:38;6.30;;;4.40;;
8098;SDS011;4092;47.876;9.372;2023-12-20T04:24:07;4.50;;;2.70;;
8098;SDS011;4092;47.876;9.372;2023-12-20T04:26:34;6.03;;;4.00;;
8098;SDS011;4092;47.876;9.372;2023-12-20T04:29:01;4.07;;;3.27;;
8098;SDS011;4092;47.876;9.372;2023-12-20T04:31:28;4.70;;;3.53;;
8098;SDS011;4092;47.876;9.372;2023-12-20T04:33:55;5.53;;;3.63;;
8098;SDS011;4092;47.876;9.372;2023-12-20T04:36:22;4.70;;;3.10;;
8098;SDS011;4092;47.876;9.372;2023-12-20T04:38:51;8.50;;;3.70;;
8098;SDS011;4092;47.876;9.372;2023-12-20T04:41:21;6.10;;;3.37;;
8098;SDS011;4092;47.876;9.372;2023-12-20T04:43:48;5.63;;;2.50;;
8098;SDS011;4092;47.876;9.372;2023-12-20T04:46:16;4.43;;;2.43;;
8098;SDS011;4092;47.876;9.372;2023-12-20T04:48:43;7.70;;;4.47;;
8098;SDS011;4092;47.876;9.372;2023-12-20T04:51:10;3.20;;;2.63;;
8098;SDS011;4092;47.876;9.372;2023-12-20T04:53:37;2.77;;;2.50;;
8098;SDS011;4092;47.876;9.372;2023-12-20T04:56:04;6.23;;;3.43;;
8098;SDS011;4092;47.876;9.372;2023-12-20T04:58:33;4.10;;;2.40;;
8098;SDS011;4092;47.876;9.372;2023-12-20T05:01:00;2.93;;;2.23;;
8098;SDS011;4092;47.876;9.372;2023-12-20T05:03:27;2.67;;;1.70;;
8098;SDS011;4092;47.876;9.372;2023-12-20T05:05:55;3.30;;;2.07;;
8098;SDS011;4092;47.876;9.372;2023-12-20T05:08:22;3.80;;;2.87;;
8098;SDS011;4092;47.876;9.372;2023-12-20T05:10:50;3.20;;;2.90;;
8098;SDS011;4092;47.876;9.372;2023-12-20T05:13:17;2.57;;;1.97;;
8098;SDS011;4092;47.876;9.372;2023-12-20T05:15:46;3.90;;;2.20;;
8098;SDS011;4092;47.876;9.372;2023-12-20T05:18:13;2.90;;;2.20;;
8098;SDS011;4092;47.876;9.372;2023-12-20T05:20:40;2.73;;;2.40;;
8098;SDS011;4092;47.876;9.372;2023-12-20T05:23:07;3.30;;;1.80;;
8098;SDS011;4092;47.876;9.372;2023-12-20T05:25:34;3.60;;;3.10;;
8098;SDS011;4092;47.876;9.372;2023-12-20T05:28:01;5.30;;;3.30;;
8098;SDS011;4092;47.876;9.372;2023-12-20T05:30:28;1.53;;;1.30;;
8098;SDS011;4092;47.876;9.372;2023-12-20T05:32:58;1.83;;;1.40;;
8098;SDS011;4092;47.876;9.372;2023-12-20T05:35:25;2.90;;;1.70;;
8098;SDS011;4092;47.876;9.372;2023-12-20T05:37:52;2.33;;;1.83;;
8098;SDS011;4092;47.876;9.372;2023-12-20T05:40:19;1.40;;;1.20;;
8098;SDS011;4092;47.876;9.372;2023-12-20T05:42:46;4.17;;;1.77;;
8098;SDS011;4092;47.876;9.372;2023-12-20T05:45:14;2.20;;;1.67;;
8098;SDS011;4092;47.876;9.372;2023-12-20T05:47:41;2.57;;;2.20;;
8098;SDS011;4092;47.876;9.372;2023-12-20T05:50:10;2.83;;;1.97;;
8098;SDS011;4092;47.876;9.372;2023-12-20T05:52:37;2.37;;;1.63;;
8098;SDS011;4092;47.876;9.372;2023-12-20T05:55:04;1.87;;;1.30;;
8098;SDS011;4092;47.876;9.372;2023-12-20T05:57:31;4.73;;;1.67;;
8098;SDS011;4092;47.876;9.372;2023-12-20T05:59:58;2.30;;;1.57;;
8098;SDS011;4092;47.876;9.372;2023-12-20T06:02:25;1.73;;;1.47;;
8098;SDS011;4092;47.876;9.372;2023-12-20T06:04:53;3.00;;;1.83;;
8098;SDS011;4092;47.876;9.372;2023-12-20T06:07:21;2.87;;;2.50;;
8098;SDS011;4092;47.876;9.372;2023-12-20T06:09:48;2.67;;;1.93;;
8098;SDS011;4092;47.876;9.372;2023-12-20T06:12:16;2.40;;;2.10;;
8098;SDS011;4092;47.876;9.372;2023-12-20T06:14:43;2.13;;;1.60;;
8098;SDS011;4092;47.876;9.372;2023-12-20T06:17:10;5.77;;;2.10;;
8098;SDS011;4092;47.876;9.372;2023-12-20T06:19:37;5.50;;;2.40;;
8098;SDS011;4092;47.876;9.372;2023-12-20T06:22:04;3.60;;;2.17;;
8098;SDS011;4092;47.876;9.372;2023-12-20T06:24:32;7.13;;;2.20;;
8098;SDS011;4092;47.876;9.372;2023-12-20T06:26:59;3.23;;;2.53;;
8098;SDS011;4092;47.876;9.372;2023-12-20T06:29:26;2.33;;;1.80;;
8098;SDS011;4092;47.876;9.372;2023-12-20T06:31:54;2.80;;;2.20;;
8098;SDS011;4092;47.876;9.372;2023-12-20T06:34:21;3.30;;;2.00;;
8098;SDS011;4092;47.876;9.372;2023-12-20T06:36:48;3.63;;;2.10;;
8098;SDS011;4092;47.876;9.372;2023-12-20T06:39:15;3.10;;;1.87;;
8098;SDS011;4092;47.876;9.372;2023-12-20T06:41:43;14.30;;;2.17;;
8098;SDS011;4092;47.876;9.372;2023-12-20T06:44:10;1.77;;;1.67;;
8098;SDS011;4092;47.876;9.372;2023-12-20T06:46:38;2.30;;;1.73;;
8098;SDS011;4092;47.876;9.372;2023-12-20T06:49:04;2.00;;;1.73;;
8098;SDS011;4092;47.876;9.372;2023-12-20T06:51:31;2.40;;;2.20;;
8098;SDS011;4092;47.876;9.372;2023-12-20T06:53:58;4.10;;;2.63;;
8098;SDS011;4092;47.876;9.372;2023-12-20T06:56:27;3.60;;;1.87;;
8098;SDS011;4092;47.876;9.372;2023-12-20T06:58:56;6.20;;;3.07;;
8098;SDS011;4092;47.876;9.372;2023-12-20T07:01:23;2.60;;;2.40;;
8098;SDS011;4092;47.876;9.372;2023-12-20T07:03:50;2.57;;;1.87;;
8098;SDS011;4092;47.876;9.372;2023-12-20T07:06:17;3.03;;;1.57;;
8098;SDS011;4092;47.876;9.372;2023-12-20T07:08:44;2.17;;;1.83;;
8098;SDS011;4092;47.876;9.372;2023-12-20T07:11:11;3.00;;;2.37;;
8098;SDS011;4092;47.876;9.372;2023-12-20T07:13:38;2.77;;;2.43;;
8098;SDS011;4092;47.876;9.372;2023-12-20T07:16:07;4.13;;;2.00;;
8098;SDS011;4092;47.876;9.372;2023-12-20T07:18:34;1.93;;;1.57;;
8098;SDS011;4092;47.876;9.372;2023-12-20T07:21:01;11.53;;;2.50;;
8098;SDS011;4092;47.876;9.372;2023-12-20T07:23:29;3.00;;;2.30;;
8098;SDS011;4092;47.876;9.372;2023-12-20T07:25:56;5.20;;;2.50;;
8098;SDS011;4092;47.876;9.372;2023-12-20T07:28:23;2.63;;;1.60;;
8098;SDS011;4092;47.876;9.372;2023-12-20T07:30:50;2.10;;;1.33;;
8098;SDS011;4092;47.876;9.372;2023-12-20T07:33:19;2.90;;;2.27;;
8098;SDS011;4092;47.876;9.372;2023-12-20T07:35:46;1.47;;;1.30;;
8098;SDS011;4092;47.876;9.372;2023-12-20T07:38:13;3.40;;;1.87;;
8098;SDS011;4092;47.876;9.372;2023-12-20T07:40:43;3.50;;;2.03;;
8098;SDS011;4092;47.876;9.372;2023-12-20T07:43:10;3.23;;;2.20;;
8098;SDS011;4092;47.876;9.372;2023-12-20T07:45:37;1.67;;;1.50;;
8098;SDS011;4092;47.876;9.372;2023-12-20T07:48:06;3.20;;;1.23;;
8098;SDS011;4092;47.876;9.372;2023-12-20T07:50:35;2.20;;;1.53;;
8098;SDS011;4092;47.876;9.372;2023-12-20T07:53:02;3.63;;;2.10;;
8098;SDS011;4092;47.876;9.372;2023-12-20T07:55:31;2.60;;;1.60;;
8098;SDS011;4092;47.876;9.372;2023-12-20T07:57:58;1.53;;;1.43;;
8098;SDS011;4092;47.876;9.372;2023-12-20T08:00:26;3.67;;;2.10;;
8098;SDS011;4092;47.876;9.372;2023-12-20T08:02:54;2.50;;;1.90;;
8098;SDS011;4092;47.876;9.372;2023-12-20T08:05:21;3.50;;;2.30;;
8098;SDS011;4092;47.876;9.372;2023-12-20T08:07:49;8.87;;;2.93;;
8098;SDS011;4092;47.876;9.372;2023-12-20T08:10:16;5.17;;;2.30;;
8098;SDS011;4092;47.876;9.372;2023-12-20T08:12:44;3.43;;;2.30;;
8098;SDS011;4092;47.876;9.372;2023-12-20T08:15:11;1.70;;;1.23;;
8098;SDS011;4092;47.876;9.372;2023-12-20T08:17:39;3.70;;;1.83;;
8098;SDS011;4092;47.876;9.372;2023-12-20T08:20:07;2.03;;;1.70;;
8098;SDS011;4092;47.876;9.372;2023-12-20T08:22:34;2.17;;;1.53;;
8098;SDS011;4092;47.876;9.372;2023-12-20T08:25:03;1.73;;;1.43;;
8098;SDS011;4092;47.876;9.372;2023-12-20T08:27:30;2.60;;;2.33;;
8098;SDS011;4092;47.876;9.372;2023-12-20T08:29:58;2.87;;;1.80;;
8098;SDS011;4092;47.876;9.372;2023-12-20T08:32:26;2.57;;;2.07;;
8098;SDS011;4092;47.876;9.372;2023-12-20T08:34:53;2.63;;;2.17;;
8098;SDS011;4092;47.876;9.372;2023-12-20T08:37:20;2.23;;;2.00;;
8098;SDS011;4092;47.876;9.372;2023-12-20T08:39:47;3.00;;;2.40;;
8098;SDS011;4092;47.876;9.372;2023-12-20T08:42:16;2.30;;;2.10;;
8098;SDS011;4092;47.876;9.372;2023-12-20T08:44:43;3.57;;;2.63;;
8098;SDS011;4092;47.876;9.372;2023-12-20T08:47:09;2.10;;;1.33;;
8098;SDS011;4092;47.876;9.372;2023-12-20T08:49:38;3.03;;;1.90;;
8098;SDS011;4092;47.876;9.372;2023-12-20T08:52:05;2.47;;;1.80;;
8098;SDS011;4092;47.876;9.372;2023-12-20T08:54:32;1.47;;;1.33;;
8098;SDS011;4092;47.876;9.372;2023-12-20T08:56:59;3.30;;;2.00;;
8098;SDS011;4092;47.876;9.372;2023-12-20T08:59:27;4.60;;;2.33;;
8098;SDS011;4092;47.876;9.372;2023-12-20T09:01:54;2.33;;;1.57;;
8098;SDS011;4092;47.876;9.372;2023-12-20T09:04:21;2.13;;;1.67;;
8098;SDS011;4092;47.876;9.372;2023-12-20T09:06:48;2.30;;;1.93;;
8098;SDS011;4092;47.876;9.372;2023-12-20T09:09:16;2.43;;;2.20;;
8098;SDS011;4092;47.876;9.372;2023-12-20T09:11:43;3.30;;;1.40;;
8098;SDS011;4092;47.876;9.372;2023-12-20T09:14:11;3.20;;;2.33;;
8098;SDS011;4092;47.876;9.372;2023-12-20T09:16:39;4.47;;;2.53;;
8098;SDS011;4092;47.876;9.372;2023-12-20T09:19:06;2.10;;;1.73;;
8098;SDS011;4092;47.876;9.372;2023-12-20T09:21:33;4.30;;;2.40;;
8098;SDS011;4092;47.876;9.372;2023-12-20T09:24:00;2.03;;;1.43;;
8098;SDS011;4092;47.876;9.372;2023-12-20T09:26:28;5.83;;;2.60;;
8098;SDS011;4092;47.876;9.372;2023-12-20T09:28:55;4.90;;;3.00;;
8098;SDS011;4092;47.876;9.372;2023-12-20T09:31:22;3.80;;;3.50;;
8098;SDS011;4092;47.876;9.372;2023-12-20T09:33:50;3.27;;;2.70;;
8098;SDS011;4092;47.876;9.372;2023-12-20T09:36:17;2.07;;;1.73;;
8098;SDS011;4092;47.876;9.372;2023-12-20T09:38:44;5.03;;;2.87;;
8098;SDS011;4092;47.876;9.372;2023-12-20T09:41:11;2.57;;;1.70;;
8098;SDS011;4092;47.876;9.372;2023-12-20T09:43:38;1.83;;;1.70;;
8098;SDS011;4092;47.876;9.372;2023-12-20T09:46:07;4.37;;;2.40;;
8098;SDS011;4092;47.876;9.372;2023-12-20T09:48:38;3.30;;;2.30;;
8098;SDS011;4092;47.876;9.372;2023-12-20T09:51:08;5.50;;;3.63;;
8098;SDS011;4092;47.876;9.372;2023-12-20T09:53:35;4.73;;;3.40;;
8098;SDS011;4092;47.876;9.372;2023-12-20T09:56:05;2.37;;;1.90;;
8098;SDS011;4092;47.876;9.372;2023-12-20T09:58:35;4.60;;;2.63;;
8098;SDS011;4092;47.876;9.372;2023-12-20T10:01:03;3.40;;;2.67;;
8098;SDS011;4092;47.876;9.372;2023-12-20T10:03:30;3.23;;;2.13;;
8098;SDS011;4092;47.876;9.372;2023-12-20T10:05:57;4.63;;;2.33;;
8098;SDS011;4092;47.876;9.372;2023-12-20T10:08:28;4.00;;;2.30;;
8098;SDS011;4092;47.876;9.372;2023-12-20T10:10:55;4.23;;;3.87;;
8098;SDS011;4092;47.876;9.372;2023-12-20T10:13:27;3.20;;;2.00;;
8098;SDS011;4092;47.876;9.372;2023-12-20T10:15:54;4.53;;;2.50;;
8098;SDS011;4092;47.876;9.372;2023-12-20T10:18:22;3.43;;;2.37;;
8098;SDS011;4092;47.876;9.372;2023-12-20T10:20:49;3.63;;;2.67;;
8098;SDS011;4092;47.876;9.372;2023-12-20T10:23:16;2.70;;;2.13;;
8098;SDS011;4092;47.876;9.372;2023-12-20T10:25:47;1.90;;;1.53;;
8098;SDS011;4092;47.876;9.372;2023-12-20T10:28:23;3.80;;;2.10;;
8098;SDS011;4092;47.876;9.372;2023-12-20T10:30:52;1.70;;;1.30;;
8098;SDS011;4092;47.876;9.372;2023-12-20T10:33:23;2.13;;;1.90;;
8098;SDS011;4092;47.876;9.372;2023-12-20T10:35:51;4.33;;;2.50;;
8098;SDS011;4092;47.876;9.372;2023-12-20T10:38:19;1.73;;;1.63;;
8098;SDS011;4092;47.876;9.372;2023-12-20T10:40:47;3.70;;;2.57;;
8098;SDS011;4092;47.876;9.372;2023-12-20T10:43:20;2.77;;;2.10;;
8098;SDS011;4092;47.876;9.372;2023-12-20T10:45:47;2.87;;;1.60;;
8098;SDS011;4092;47.876;9.372;2023-12-20T10:48:14;1.83;;;1.57;;
8098;SDS011;4092;47.876;9.372;2023-12-20T10:50:42;3.33;;;3.03;;
8098;SDS011;4092;47.876;9.372;2023-12-20T10:53:10;4.73;;;2.07;;
8098;SDS011;4092;47.876;9.372;2023-12-20T10:55:39;7.53;;;2.13;;
8098;SDS011;4092;47.876;9.372;2023-12-20T10:58:09;3.30;;;2.17;;
8098;SDS011;4092;47.876;9.372;2023-12-20T11:00:38;4.33;;;2.27;;
8098;SDS011;4092;47.876;9.372;2023-12-20T11:03:08;2.53;;;2.00;;
8098;SDS011;4092;47.876;9.372;2023-12-20T11:05:38;2.43;;;1.60;;
8098;SDS011;4092;47.876;9.372;2023-12-20T11:08:09;3.53;;;2.10;;
8098;SDS011;4092;47.876;9.372;2023-12-20T11:10:42;1.40;;;1.30;;
8098;SDS011;4092;47.876;9.372;2023-12-20T11:13:20;2.40;;;1.50;;
8098;SDS011;4092;47.876;9.372;2023-12-20T11:15:48;1.60;;;1.27;;
8098;SDS011;4092;47.876;9.372;2023-12-20T11:18:16;3.20;;;1.73;;
8098;SDS011;4092;47.876;9.372;2023-12-20T11:20:43;2.10;;;1.40;;
8098;SDS011;4092;47.876;9.372;2023-12-20T11:23:11;1.87;;;1.30;;
8098;SDS011;4092;47.876;9.372;2023-12-20T11:25:47;3.27;;;1.80;;
8098;SDS011;4092;47.876;9.372;2023-12-20T11:28:15;2.57;;;1.83;;
8098;SDS011;4092;47.876;9.372;2023-12-20T11:30:50;2.43;;;1.43;;
8098;SDS011;4092;47.876;9.372;2023-12-20T11:33:21;2.17;;;1.73;;
8098;SDS011;4092;47.876;9.372;2023-12-20T11:35:49;3.30;;;3.00;;
8098;SDS011;4092;47.876;9.372;2023-12-20T11:38:17;1.67;;;1.37;;
8098;SDS011;4092;47.876;9.372;2023-12-20T11:40:48;2.10;;;1.97;;
8098;SDS011;4092;47.876;9.372;2023-12-20T11:43:30;2.17;;;1.97;;
8098;SDS011;4092;47.876;9.372;2023-12-20T11:46:02;1.70;;;1.40;;
8098;SDS011;4092;47.876;9.372;2023-12-20T11:48:30;1.90;;;1.47;;
8098;SDS011;4092;47.876;9.372;2023-12-20T11:50:58;1.53;;;1.43;;
8098;SDS011;4092;47.876;9.372;2023-12-20T11:53:26;1.00;;;0.80;;
8098;SDS011;4092;47.876;9.372;2023-12-20T11:55:53;1.10;;;1.00;;
8098;SDS011;4092;47.876;9.372;2023-12-20T11:58:21;5.90;;;1.20;;
8098;SDS011;4092;47.876;9.372;2023-12-20T12:00:50;2.47;;;1.23;;
8098;SDS011;4092;47.876;9.372;2023-12-20T12:03:17;1.30;;;1.17;;
8098;SDS011;4092;47.876;9.372;2023-12-20T12:05:46;1.20;;;0.90;;
8098;SDS011;4092;47.876;9.372;2023-12-20T12:08:15;1.10;;;0.90;;
8098;SDS011;4092;47.876;9.372;2023-12-20T12:10:43;1.40;;;1.00;;
8098;SDS011;4092;47.876;9.372;2023-12-20T12:13:11;1.10;;;0.80;;
8098;SDS011;4092;47.876;9.372;2023-12-20T12:15:39;1.10;;;0.70;;
8098;SDS011;4092;47.876;9.372;2023-12-20T12:18:08;1.20;;;0.90;;
8098;SDS011;4092;47.876;9.372;2023-12-20T12:20:36;3.00;;;1.00;;
8098;SDS011;4092;47.876;9.372;2023-12-20T12:23:03;1.10;;;1.00;;
8098;SDS011;4092;47.876;9.372;2023-12-20T12:25:34;2.00;;;0.97;;
8098;SDS011;4092;47.876;9.372;2023-12-20T12:28:02;1.30;;;1.00;;
8098;SDS011;4092;47.876;9.372;2023-12-20T12:30:30;1.10;;;0.80;;
8098;SDS011;4092;47.876;9.372;2023-12-20T12:32:57;4.00;;;1.00;;
8098;SDS011;4092;47.876;9.372;2023-12-20T12:35:25;1.30;;;0.80;;
8098;SDS011;4092;47.876;9.372;2023-12-20T12:37:53;1.87;;;1.03;;
8098;SDS011;4092;47.876;9.372;2023-12-20T12:40:20;3.73;;;1.00;;
8098;SDS011;4092;47.876;9.372;2023-12-20T12:42:47;1.20;;;0.90;;
8098;SDS011;4092;47.876;9.372;2023-12-20T12:45:15;1.20;;;0.87;;
8098;SDS011;4092;47.876;9.372;2023-12-20T12:47:42;1.53;;;0.90;;
8098;SDS011;4092;47.876;9.372;2023-12-20T12:50:09;1.10;;;0.80;;
8098;SDS011;4092;47.876;9.372;2023-12-20T12:52:37;1.70;;;0.90;;
8098;SDS011;4092;47.876;9.372;2023-12-20T12:55:05;1.50;;;0.80;;
8098;SDS011;4092;47.876;9.372;2023-12-20T12:57:33;1.03;;;0.87;;
8098;SDS011;4092;47.876;9.372;2023-12-20T13:00:00;1.20;;;1.00;;
8098;SDS011;4092;47.876;9.372;2023-12-20T13:02:28;1.90;;;1.10;;
8098;SDS011;4092;47.876;9.372;2023-12-20T13:04:55;3.70;;;1.00;;
8098;SDS011;4092;47.876;9.372;2023-12-20T13:07:22;1.03;;;0.83;;
8098;SDS011;4092;47.876;9.372;2023-12-20T13:09:51;1.10;;;0.80;;
8098;SDS011;4092;47.876;9.372;2023-12-20T13:12:18;1.20;;;1.10;;
8098;SDS011;4092;47.876;9.372;2023-12-20T13:14:46;1.00;;;0.80;;
8098;SDS011;4092;47.876;9.372;2023-12-20T13:17:13;1.03;;;0.90;;
8098;SDS011;4092;47.876;9.372;2023-12-20T13:19:41;2.80;;;0.97;;
8098;SDS011;4092;47.876;9.372;2023-12-20T13:22:11;2.30;;;1.33;;
8098;SDS011;4092;47.876;9.372;2023-12-20T13:24:41;3.10;;;0.87;;
8098;SDS011;4092;47.876;9.372;2023-12-20T13:27:13;1.33;;;1.00;;
8098;SDS011;4092;47.876;9.372;2023-12-20T13:29:44;1.00;;;0.80;;
8098;SDS011;4092;47.876;9.372;2023-12-20T13:32:11;1.00;;;0.80;;
8098;SDS011;4092;47.876;9.372;2023-12-20T13:34:39;1.10;;;0.90;;
8098;SDS011;4092;47.876;9.372;2023-12-20T13:37:06;1.07;;;0.87;;
8098;SDS011;4092;47.876;9.372;2023-12-20T13:39:34;1.20;;;1.00;;
8098;SDS011;4092;47.876;9.372;2023-12-20T13:42:01;1.67;;;1.10;;
8098;SDS011;4092;47.876;9.372;2023-12-20T13:44:32;1.20;;;0.80;;
8098;SDS011;4092;47.876;9.372;2023-12-20T13:46:59;2.07;;;1.07;;
8098;SDS011;4092;47.876;9.372;2023-12-20T13:49:26;1.13;;;1.03;;
8098;SDS011;4092;47.876;9.372;2023-12-20T13:51:54;2.10;;;0.90;;
8098;SDS011;4092;47.876;9.372;2023-12-20T13:54:22;1.20;;;1.03;;
8098;SDS011;4092;47.876;9.372;2023-12-20T13:56:51;1.50;;;1.20;;
8098;SDS011;4092;47.876;9.372;2023-12-20T13:59:18;1.27;;;1.07;;
8098;SDS011;4092;47.876;9.372;2023-12-20T14:01:47;5.23;;;1.30;;
8098;SDS011;4092;47.876;9.372;2023-12-20T14:04:19;1.60;;;1.30;;
8098;SDS011;4092;47.876;9.372;2023-12-20T14:06:46;1.23;;;0.90;;
8098;SDS011;4092;47.876;9.372;2023-12-20T14:09:13;1.73;;;1.20;;
8098;SDS011;4092;47.876;9.372;2023-12-20T14:11:40;3.60;;;1.10;;
8098;SDS011;4092;47.876;9.372;2023-12-20T14:14:13;3.53;;;1.00;;
8098;SDS011;4092;47.876;9.372;2023-12-20T14:16:40;1.67;;;1.00;;
8098;SDS011;4092;47.876;9.372;2023-12-20T14:19:11;1.00;;;0.90;;
8098;SDS011;4092;47.876;9.372;2023-12-20T14:21:38;6.20;;;1.43;;
8098;SDS011;4092;47.876;9.372;2023-12-20T14:24:05;1.43;;;1.27;;
8098;SDS011;4092;47.876;9.372;2023-12-20T14:26:32;1.47;;;1.07;;
8098;SDS011;4092;47.876;9.372;2023-12-20T14:28:59;4.00;;;2.23;;
8098;SDS011;4092;47.876;9.372;2023-12-20T14:31:29;2.77;;;1.47;;
8098;SDS011;4092;47.876;9.372;2023-12-20T14:33:56;1.30;;;1.10;;
8098;SDS011;4092;47.876;9.372;2023-12-20T14:36:24;2.50;;;1.00;;
8098;SDS011;4092;47.876;9.372;2023-12-20T14:38:51;1.70;;;1.03;;
8098;SDS011;4092;47.876;9.372;2023-12-20T14:41:19;3.13;;;1.10;;
8098;SDS011;4092;47.876;9.372;2023-12-20T14:43:49;1.40;;;1.00;;
8098;SDS011;4092;47.876;9.372;2023-12-20T14:46:17;1.10;;;1.00;;
8098;SDS011;4092;47.876;9.372;2023-12-20T14:48:44;1.93;;;1.10;;
8098;SDS011;4092;47.876;9.372;2023-12-20T14:51:11;1.20;;;1.00;;
8098;SDS011;4092;47.876;9.372;2023-12-20T14:53:41;0.90;;;0.80;;
8098;SDS011;4092;47.876;9.372;2023-12-20T14:56:08;1.50;;;1.10;;
8098;SDS011;4092;47.876;9.372;2023-12-20T14:58:37;1.67;;;1.10;;
8098;SDS011;4092;47.876;9.372;2023-12-20T15:01:04;1.00;;;0.77;;
8098;SDS011;4092;47.876;9.372;2023-12-20T15:03:33;1.00;;;0.80;;
8098;SDS011;4092;47.876;9.372;2023-12-20T15:06:06;3.40;;;1.00;;
8098;SDS011;4092;47.876;9.372;2023-12-20T15:08:43;1.73;;;0.87;;
8098;SDS011;4092;47.876;9.372;2023-12-20T15:11:11;1.10;;;1.00;;
8098;SDS011;4092;47.876;9.372;2023-12-20T15:13:44;5.43;;;0.93;;
8098;SDS011;4092;47.876;9.372;2023-12-20T15:16:13;1.60;;;1.07;;
8098;SDS011;4092;47.876;9.372;2023-12-20T15:18:40;1.67;;;1.53;;